KIDA

Idaho Falls Regional Airport

Idaho Falls, Idaho, USA
METAR KIDA 241153Z AUTO 22012G19KT 10SM SCT085 M09/M13 A3002 RMK AO2 SLP219 T10941133 11078 21094 55006
Observed Flight Rules
Feb-24 @ 11:53 UTC (29 minutes ago) Visual Flight Rules
Wind Visibility Clouds
220° at 12 knots
 Gusting to 19 knots
10 miles
  • Scattered at 8,500' AGL
Temperatures Readings
Current -9°C / 16°F
Dewpoint -13°C / 9°F
Humidity 73%
Altimeter 30.02" Hg
Pressure 1021.9 hPa
Elevation 1453
METAR KIDA 241153Z AUTO 22012G19KT 10SM SCT085 M09/M13 A3002 RMK AO2 SLP219 T10941133 11078 21094 55006
Observed Flight Rules
Feb-24 @ 11:53 UTC
(29 minutes ago)
VFR
Wind Visibility
220° at 12 knots
 Gusting to 19 knots
10 miles
Clouds
  • Scattered at 8,500' AGL
Temperature Dewpoint
-9°C / 16°F -13°C / 9°F
Humidity Altimeter Pressure
73% 30.02" Hg 1021.9 hPa